PWSweather.com
Personal Weather Stations
Station Observations
WD4JKH
Forsyth, GA 31029

Forsyth, GA 31029

Lat: 33.033225, Lon: -83.927995

Elevation: 709

Station Type: Davis Vantage VUE

High Low Average
Temperature 64.1°F17.8°C 43.3°F6.3°C 56.4°F13.6°C
Dew Point 62.0°F16.7°C 20.8°F-6.2°C 40.0°F4.4°C
Winds 11.3 mph 18.2 kmh 1.6 mph 2.6 kmh 5.0 mph WNW8.0 kmh WNW
Wind Gusts 21.0 mph33.8 kmh 7.0 mph11.3 kmh 14.0 mph22.5 kmh
Humidity 95% 26% 58%
Pressure 30.44 in1030.8 mb 30.09 in1019.0 mb -
Precipitation 0.01 in0.3 mm - -
Hour Temp Dew Point Humidity Winds Wind Gusts Pressure Precip Precip Rate Daily Precip Total
12:01 AM 63.1°F17.3°C 56.9°F13.8°C 80% 3.9 mph SSW6.3 kmh SSW 8.0 mph12.9 kmh 30.09 in1019.0 mb 0.00 in0.0 mm 0.00 in0.0 mm 0.01 in0.3 mm
12:06 AM 63.0°F17.2°C 56.8°F13.8°C 80% 2.6 mph SSW4.2 kmh SSW 10.0 mph16.1 kmh 30.09 in1019.0 mb 0.00 in0.0 mm 0.00 in0.0 mm 0.00 in0.0 mm
12:11 AM 62.9°F17.2°C 57.0°F13.9°C 81% 3.1 mph SSW5.0 kmh SSW 10.0 mph16.1 kmh 30.09 in1019.0 mb 0.00 in0.0 mm 0.00 in0.0 mm 0.00 in0.0 mm
12:16 AM 62.9°F17.2°C 57.0°F13.9°C 81% 3.6 mph SSW5.8 kmh SSW 10.0 mph16.1 kmh 30.09 in1019.0 mb 0.00 in0.0 mm 0.00 in0.0 mm 0.00 in0.0 mm
12:21 AM 63.0°F17.2°C 57.1°F13.9°C 81% 3.6 mph SW5.8 kmh SW 8.0 mph12.9 kmh 30.09 in1019.0 mb 0.00 in0.0 mm 0.00 in0.0 mm 0.00 in0.0 mm
12:26 AM 62.9°F17.2°C 57.0°F13.9°C 81% 2.2 mph SSW3.5 kmh SSW 8.0 mph12.9 kmh 30.09 in1019.0 mb 0.00 in0.0 mm 0.00 in0.0 mm 0.00 in0.0 mm
12:31 AM 62.8°F17.1°C 57.3°F14.1°C 82% 3.3 mph SW5.3 kmh SW 8.0 mph12.9 kmh 30.09 in1019.0 mb 0.00 in0.0 mm 0.00 in0.0 mm 0.00 in0.0 mm
12:36 AM 62.7°F17.1°C 57.2°F14.0°C 82% 3.5 mph SW5.6 kmh SW 8.0 mph12.9 kmh 30.09 in1019.0 mb 0.00 in0.0 mm 0.00 in0.0 mm 0.00 in0.0 mm
12:41 AM 62.8°F17.1°C 57.3°F14.1°C 82% 3.7 mph SW6.0 kmh SW 8.0 mph12.9 kmh 30.09 in1019.0 mb 0.00 in0.0 mm 0.00 in0.0 mm 0.00 in0.0 mm
12:46 AM 62.8°F17.1°C 57.3°F14.1°C 82% 1.9 mph SW3.1 kmh SW 8.0 mph12.9 kmh 30.10 in1019.3 mb 0.00 in0.0 mm 0.00 in0.0 mm 0.00 in0.0 mm
12:51 AM 62.8°F17.1°C 57.3°F14.1°C 82% 3.7 mph SW6.0 kmh SW 8.0 mph12.9 kmh 30.10 in1019.3 mb 0.00 in0.0 mm 0.00 in0.0 mm 0.00 in0.0 mm
12:56 AM 63.0°F17.2°C 57.4°F14.1°C 82% 3.2 mph SW5.1 kmh SW 8.0 mph12.9 kmh 30.09 in1019.0 mb 0.00 in0.0 mm 0.00 in0.0 mm 0.00 in0.0 mm
01:01 AM 63.0°F17.2°C 57.8°F14.3°C 83% 4.5 mph SW7.2 kmh SW 8.0 mph12.9 kmh 30.09 in1019.0 mb 0.00 in0.0 mm 0.00 in0.0 mm 0.00 in0.0 mm
01:06 AM 62.9°F17.2°C 57.7°F14.3°C 83% 4.3 mph SW6.9 kmh SW 9.0 mph14.5 kmh 30.10 in1019.3 mb 0.00 in0.0 mm 0.00 in0.0 mm 0.00 in0.0 mm
01:11 AM 63.0°F17.2°C 57.8°F14.3°C 83% 3.9 mph SW6.3 kmh SW 9.0 mph14.5 kmh 30.10 in1019.3 mb 0.00 in0.0 mm 0.00 in0.0 mm 0.00 in0.0 mm
01:16 AM 63.0°F17.2°C 57.8°F14.3°C 83% 3.7 mph SW6.0 kmh SW 9.0 mph14.5 kmh 30.10 in1019.3 mb 0.00 in0.0 mm 0.00 in0.0 mm 0.00 in0.0 mm
01:21 AM 63.1°F17.3°C 58.2°F14.6°C 84% 3.2 mph SW5.1 kmh SW 9.0 mph14.5 kmh 30.10 in1019.3 mb 0.00 in0.0 mm 0.00 in0.0 mm 0.00 in0.0 mm
01:26 AM 63.1°F17.3°C 58.2°F14.6°C 84% 3.8 mph SW6.1 kmh SW 10.0 mph16.1 kmh 30.10 in1019.3 mb 0.00 in0.0 mm 0.00 in0.0 mm 0.00 in0.0 mm
01:31 AM 63.2°F17.3°C 58.3°F14.6°C 84% 3.9 mph SW6.3 kmh SW 10.0 mph16.1 kmh 30.10 in1019.3 mb 0.00 in0.0 mm 0.00 in0.0 mm 0.00 in0.0 mm
01:36 AM 63.3°F17.4°C 58.4°F14.7°C 84% 4.3 mph SW6.9 kmh SW 10.0 mph16.1 kmh 30.10 in1019.3 mb 0.00 in0.0 mm 0.00 in0.0 mm 0.00 in0.0 mm
01:41 AM 63.3°F17.4°C 58.7°F14.8°C 85% 4.5 mph SW7.2 kmh SW 10.0 mph16.1 kmh 30.10 in1019.3 mb 0.00 in0.0 mm 0.00 in0.0 mm 0.00 in0.0 mm
01:46 AM 63.2°F17.3°C 58.6°F14.8°C 85% 3.5 mph SW5.6 kmh SW 9.0 mph14.5 kmh 30.10 in1019.3 mb 0.00 in0.0 mm 0.00 in0.0 mm 0.00 in0.0 mm
01:51 AM 63.3°F17.4°C 58.7°F14.8°C 85% 3.6 mph SW5.8 kmh SW 10.0 mph16.1 kmh 30.10 in1019.3 mb 0.00 in0.0 mm 0.00 in0.0 mm 0.00 in0.0 mm
01:57 AM 63.3°F17.4°C 59.0°F15.0°C 86% 3.8 mph SW6.1 kmh SW 10.0 mph16.1 kmh 30.10 in1019.3 mb 0.00 in0.0 mm 0.00 in0.0 mm 0.00 in0.0 mm
02:01 AM 63.4°F17.4°C 59.1°F15.1°C 86% 6.7 mph SW10.8 kmh SW 16.0 mph25.7 kmh 30.11 in1019.6 mb 0.00 in0.0 mm 0.00 in0.0 mm 0.00 in0.0 mm
02:06 AM 63.5°F17.5°C 59.6°F15.3°C 87% 6.5 mph SW10.5 kmh SW 16.0 mph25.7 kmh 30.10 in1019.3 mb 0.00 in0.0 mm 0.00 in0.0 mm 0.00 in0.0 mm
02:11 AM 63.5°F17.5°C 59.6°F15.3°C 87% 7.8 mph SW12.6 kmh SW 16.0 mph25.7 kmh 30.10 in1019.3 mb 0.00 in0.0 mm 0.00 in0.0 mm 0.00 in0.0 mm
02:16 AM 63.6°F17.6°C 59.7°F15.4°C 87% 4.3 mph SW6.9 kmh SW 16.0 mph25.7 kmh 30.10 in1019.3 mb 0.00 in0.0 mm 0.00 in0.0 mm 0.00 in0.0 mm
02:21 AM 63.7°F17.6°C 60.1°F15.6°C 88% 3.2 mph SW5.1 kmh SW 14.0 mph22.5 kmh 30.11 in1019.6 mb 0.00 in0.0 mm 0.00 in0.0 mm 0.00 in0.0 mm
02:27 AM 63.8°F17.7°C 60.2°F15.7°C 88% 4.5 mph WSW7.2 kmh WSW 14.0 mph22.5 kmh 30.11 in1019.6 mb 0.00 in0.0 mm 0.00 in0.0 mm 0.00 in0.0 mm
02:32 AM 63.9°F17.7°C 60.3°F15.7°C 88% 4.9 mph SW7.9 kmh SW 12.0 mph19.3 kmh 30.11 in1019.6 mb 0.00 in0.0 mm 0.00 in0.0 mm 0.00 in0.0 mm
02:37 AM 63.9°F17.7°C 60.6°F15.9°C 89% 8.8 mph WSW14.2 kmh WSW 14.0 mph22.5 kmh 30.11 in1019.6 mb 0.00 in0.0 mm 0.00 in0.0 mm 0.00 in0.0 mm
02:42 AM 64.1°F17.8°C 60.8°F16.0°C 89% 8.9 mph WSW14.3 kmh WSW 18.0 mph29.0 kmh 30.11 in1019.6 mb 0.00 in0.0 mm 0.00 in0.0 mm 0.00 in0.0 mm
02:47 AM 64.1°F17.8°C 60.8°F16.0°C 89% 4.2 mph SW6.8 kmh SW 18.0 mph29.0 kmh 30.11 in1019.6 mb 0.00 in0.0 mm 0.00 in0.0 mm 0.00 in0.0 mm
02:51 AM 64.1°F17.8°C 60.8°F16.0°C 89% 4.9 mph SW7.9 kmh SW 18.0 mph29.0 kmh 30.11 in1019.6 mb 0.00 in0.0 mm 0.00 in0.0 mm 0.00 in0.0 mm
02:56 AM 64.1°F17.8°C 60.8°F16.0°C 89% 6.4 mph SW10.3 kmh SW 18.0 mph29.0 kmh 30.11 in1019.6 mb 0.00 in0.0 mm 0.00 in0.0 mm 0.00 in0.0 mm
03:01 AM 64.1°F17.8°C 60.8°F16.0°C 89% 4.4 mph SW7.1 kmh SW 15.0 mph24.1 kmh 30.11 in1019.6 mb 0.00 in0.0 mm 0.00 in0.0 mm 0.00 in0.0 mm
03:06 AM 64.1°F17.8°C 61.1°F16.2°C 90% 5.4 mph WSW8.7 kmh WSW 15.0 mph24.1 kmh 30.11 in1019.6 mb 0.00 in0.0 mm 0.00 in0.0 mm 0.00 in0.0 mm
03:11 AM 64.1°F17.8°C 61.1°F16.2°C 90% 5.0 mph SW8.0 kmh SW 15.0 mph24.1 kmh 30.11 in1019.6 mb 0.00 in0.0 mm 0.00 in0.0 mm 0.00 in0.0 mm
03:16 AM 64.1°F17.8°C 61.1°F16.2°C 90% 3.3 mph SW5.3 kmh SW 15.0 mph24.1 kmh 30.11 in1019.6 mb 0.00 in0.0 mm 0.00 in0.0 mm 0.00 in0.0 mm
03:21 AM 64.0°F17.8°C 61.0°F16.1°C 90% 3.1 mph SW5.0 kmh SW 12.0 mph19.3 kmh 30.11 in1019.6 mb 0.00 in0.0 mm 0.00 in0.0 mm 0.00 in0.0 mm
03:26 AM 64.0°F17.8°C 61.0°F16.1°C 90% 2.4 mph SW3.9 kmh SW 12.0 mph19.3 kmh 30.11 in1019.6 mb 0.00 in0.0 mm 0.00 in0.0 mm 0.00 in0.0 mm
03:31 AM 64.0°F17.8°C 61.3°F16.3°C 91% 3.7 mph SW6.0 kmh SW 12.0 mph19.3 kmh 30.11 in1019.6 mb 0.00 in0.0 mm 0.00 in0.0 mm 0.00 in0.0 mm
03:36 AM 64.0°F17.8°C 61.3°F16.3°C 91% 2.6 mph SW4.2 kmh SW 12.0 mph19.3 kmh 30.11 in1019.6 mb 0.00 in0.0 mm 0.00 in0.0 mm 0.00 in0.0 mm
03:41 AM 64.0°F17.8°C 61.3°F16.3°C 91% 5.6 mph SW9.0 kmh SW 12.0 mph19.3 kmh 30.11 in1019.6 mb 0.00 in0.0 mm 0.00 in0.0 mm 0.00 in0.0 mm
03:46 AM 63.9°F17.7°C 61.2°F16.2°C 91% 4.5 mph SW7.2 kmh SW 12.0 mph19.3 kmh 30.11 in1019.6 mb 0.00 in0.0 mm 0.00 in0.0 mm 0.00 in0.0 mm
03:51 AM 63.9°F17.7°C 61.2°F16.2°C 91% 5.6 mph SW9.0 kmh SW 12.0 mph19.3 kmh 30.11 in1019.6 mb 0.00 in0.0 mm 0.00 in0.0 mm 0.00 in0.0 mm
03:56 AM 63.9°F17.7°C 61.2°F16.2°C 91% 3.6 mph SW5.8 kmh SW 12.0 mph19.3 kmh 30.11 in1019.6 mb 0.00 in0.0 mm 0.00 in0.0 mm 0.00 in0.0 mm
04:01 AM 63.9°F17.7°C 61.2°F16.2°C 91% 3.7 mph SW6.0 kmh SW 12.0 mph19.3 kmh 30.11 in1019.6 mb 0.00 in0.0 mm 0.00 in0.0 mm 0.00 in0.0 mm
04:06 AM 64.0°F17.8°C 61.6°F16.4°C 92% 3.1 mph SW5.0 kmh SW 12.0 mph19.3 kmh 30.11 in1019.6 mb 0.00 in0.0 mm 0.00 in0.0 mm 0.00 in0.0 mm
04:11 AM 64.1°F17.8°C 61.7°F16.5°C 92% 2.2 mph SW3.5 kmh SW 12.0 mph19.3 kmh 30.11 in1019.6 mb 0.00 in0.0 mm 0.00 in0.0 mm 0.00 in0.0 mm
04:16 AM 64.1°F17.8°C 61.7°F16.5°C 92% 2.5 mph SW4.0 kmh SW 12.0 mph19.3 kmh 30.11 in1019.6 mb 0.00 in0.0 mm 0.00 in0.0 mm 0.00 in0.0 mm
04:21 AM 64.1°F17.8°C 61.7°F16.5°C 92% 1.9 mph SW3.1 kmh SW 10.0 mph16.1 kmh 30.11 in1019.6 mb 0.00 in0.0 mm 0.00 in0.0 mm 0.00 in0.0 mm
04:26 AM 64.1°F17.8°C 61.7°F16.5°C 92% 3.9 mph WSW6.3 kmh WSW 10.0 mph16.1 kmh 30.12 in1020.0 mb 0.00 in0.0 mm 0.00 in0.0 mm 0.00 in0.0 mm
04:31 AM 64.1°F17.8°C 61.7°F16.5°C 92% 3.0 mph SW4.8 kmh SW 9.0 mph14.5 kmh 30.12 in1020.0 mb 0.00 in0.0 mm 0.00 in0.0 mm 0.00 in0.0 mm
04:36 AM 64.0°F17.8°C 61.9°F16.6°C 93% 2.2 mph SW3.5 kmh SW 7.0 mph11.3 kmh 30.12 in1020.0 mb 0.00 in0.0 mm 0.00 in0.0 mm 0.00 in0.0 mm
04:41 AM 63.8°F17.7°C 61.7°F16.5°C 93% 2.8 mph WSW4.5 kmh WSW 11.0 mph17.7 kmh 30.12 in1020.0 mb 0.01 in0.3 mm 0.12 in3.0 mm 0.01 in0.3 mm
04:46 AM 63.7°F17.6°C 61.9°F16.6°C 94% 2.4 mph WSW3.9 kmh WSW 11.0 mph17.7 kmh 30.13 in1020.3 mb 0.01 in0.3 mm 0.00 in0.0 mm 0.01 in0.3 mm
04:51 AM 63.6°F17.6°C 61.8°F16.6°C 94% 2.5 mph W4.0 kmh W 11.0 mph17.7 kmh 30.13 in1020.3 mb 0.01 in0.3 mm 0.00 in0.0 mm 0.01 in0.3 mm
04:56 AM 63.5°F17.5°C 62.0°F16.7°C 95% 4.5 mph WSW7.2 kmh WSW 9.0 mph14.5 kmh 30.14 in1020.7 mb 0.01 in0.3 mm 0.00 in0.0 mm 0.01 in0.3 mm
05:01 AM 63.4°F17.4°C 61.9°F16.6°C 95% 2.5 mph WNW4.0 kmh WNW 9.0 mph14.5 kmh 30.14 in1020.7 mb 0.01 in0.3 mm 0.00 in0.0 mm 0.01 in0.3 mm
05:06 AM 63.2°F17.3°C 61.4°F16.3°C 94% 4.9 mph NW7.9 kmh NW 9.0 mph14.5 kmh 30.14 in1020.7 mb 0.01 in0.3 mm 0.00 in0.0 mm 0.01 in0.3 mm
05:11 AM 62.9°F17.2°C 60.5°F15.8°C 92% 3.6 mph NW5.8 kmh NW 10.0 mph16.1 kmh 30.15 in1021.0 mb 0.01 in0.3 mm 0.00 in0.0 mm 0.01 in0.3 mm
05:16 AM 62.7°F17.1°C 60.3°F15.7°C 92% 5.2 mph NW8.4 kmh NW 10.0 mph16.1 kmh 30.15 in1021.0 mb 0.01 in0.3 mm 0.00 in0.0 mm 0.01 in0.3 mm
05:21 AM 62.5°F16.9°C 59.8°F15.4°C 91% 3.9 mph NW6.3 kmh NW 10.0 mph16.1 kmh 30.15 in1021.0 mb 0.01 in0.3 mm 0.00 in0.0 mm 0.01 in0.3 mm
05:26 AM 62.4°F16.9°C 59.4°F15.2°C 90% 4.4 mph NW7.1 kmh NW 10.0 mph16.1 kmh 30.16 in1021.3 mb 0.01 in0.3 mm 0.00 in0.0 mm 0.01 in0.3 mm
05:31 AM 62.2°F16.8°C 58.9°F14.9°C 89% 2.5 mph NW4.0 kmh NW 10.0 mph16.1 kmh 30.15 in1021.0 mb 0.01 in0.3 mm 0.00 in0.0 mm 0.01 in0.3 mm
05:36 AM 61.9°F16.6°C 56.4°F13.6°C 82% 6.3 mph NW10.1 kmh NW 20.0 mph32.2 kmh 30.16 in1021.3 mb 0.01 in0.3 mm 0.00 in0.0 mm 0.01 in0.3 mm
05:41 AM 61.6°F16.4°C 55.8°F13.2°C 81% 5.9 mph NW9.5 kmh NW 20.0 mph32.2 kmh 30.16 in1021.3 mb 0.00 in0.0 mm 0.00 in0.0 mm 0.01 in0.3 mm
05:46 AM 61.3°F16.3°C 55.5°F13.1°C 81% 8.8 mph WNW14.2 kmh WNW 20.0 mph32.2 kmh 30.16 in1021.3 mb 0.00 in0.0 mm 0.00 in0.0 mm 0.01 in0.3 mm
05:51 AM 61.1°F16.2°C 55.3°F12.9°C 81% 7.6 mph NW12.2 kmh NW 20.0 mph32.2 kmh 30.17 in1021.7 mb 0.00 in0.0 mm 0.00 in0.0 mm 0.01 in0.3 mm
05:56 AM 60.9°F16.1°C 55.1°F12.8°C 81% 3.8 mph NW6.1 kmh NW 17.0 mph27.4 kmh 30.17 in1021.7 mb 0.00 in0.0 mm 0.00 in0.0 mm 0.01 in0.3 mm
06:01 AM 60.7°F15.9°C 54.9°F12.7°C 81% 4.5 mph WNW7.2 kmh WNW 17.0 mph27.4 kmh 30.17 in1021.7 mb 0.00 in0.0 mm 0.00 in0.0 mm 0.01 in0.3 mm
06:06 AM 60.5°F15.8°C 54.4°F12.4°C 80% 6.0 mph NW9.7 kmh NW 17.0 mph27.4 kmh 30.17 in1021.7 mb 0.00 in0.0 mm 0.00 in0.0 mm 0.01 in0.3 mm
06:11 AM 60.3°F15.7°C 53.8°F12.1°C 79% 7.0 mph WNW11.3 kmh WNW 15.0 mph24.1 kmh 30.17 in1021.7 mb 0.00 in0.0 mm 0.00 in0.0 mm 0.01 in0.3 mm
06:16 AM 60.1°F15.6°C 54.0°F12.2°C 80% 3.7 mph NW6.0 kmh NW 13.0 mph20.9 kmh 30.17 in1021.7 mb 0.00 in0.0 mm 0.00 in0.0 mm 0.01 in0.3 mm
06:21 AM 60.0°F15.6°C 53.9°F12.2°C 80% 3.7 mph NW6.0 kmh NW 13.0 mph20.9 kmh 30.17 in1021.7 mb 0.00 in0.0 mm 0.00 in0.0 mm 0.01 in0.3 mm
06:26 AM 59.9°F15.5°C 53.4°F11.9°C 79% 4.4 mph NW7.1 kmh NW 13.0 mph20.9 kmh 30.17 in1021.7 mb 0.00 in0.0 mm 0.00 in0.0 mm 0.01 in0.3 mm
06:31 AM 59.9°F15.5°C 53.4°F11.9°C 79% 5.2 mph WNW8.4 kmh WNW 11.0 mph17.7 kmh 30.17 in1021.7 mb 0.00 in0.0 mm 0.00 in0.0 mm 0.01 in0.3 mm
06:36 AM 59.8°F15.4°C 53.0°F11.7°C 78% 4.4 mph WNW7.1 kmh WNW 11.0 mph17.7 kmh 30.18 in1022.0 mb 0.00 in0.0 mm 0.00 in0.0 mm 0.01 in0.3 mm
06:41 AM 59.7°F15.4°C 53.2°F11.8°C 79% 2.6 mph WNW4.2 kmh WNW 10.0 mph16.1 kmh 30.18 in1022.0 mb 0.00 in0.0 mm 0.00 in0.0 mm 0.01 in0.3 mm
06:46 AM 59.6°F15.3°C 53.1°F11.7°C 79% 4.3 mph WNW6.9 kmh WNW 10.0 mph16.1 kmh 30.18 in1022.0 mb 0.00 in0.0 mm 0.00 in0.0 mm 0.01 in0.3 mm
06:51 AM 59.6°F15.3°C 53.1°F11.7°C 79% 5.3 mph WNW8.5 kmh WNW 11.0 mph17.7 kmh 30.18 in1022.0 mb 0.00 in0.0 mm 0.00 in0.0 mm 0.01 in0.3 mm
06:56 AM 59.5°F15.3°C 53.0°F11.7°C 79% 4.1 mph WNW6.6 kmh WNW 11.0 mph17.7 kmh 30.19 in1022.4 mb 0.00 in0.0 mm 0.00 in0.0 mm 0.01 in0.3 mm
07:01 AM 59.5°F15.3°C 53.3°F11.8°C 80% 2.5 mph WNW4.0 kmh WNW 11.0 mph17.7 kmh 30.19 in1022.4 mb 0.00 in0.0 mm 0.00 in0.0 mm 0.01 in0.3 mm
07:06 AM 59.4°F15.2°C 53.2°F11.8°C 80% 3.2 mph WNW5.1 kmh WNW 11.0 mph17.7 kmh 30.19 in1022.4 mb 0.00 in0.0 mm 0.00 in0.0 mm 0.01 in0.3 mm
07:11 AM 59.4°F15.2°C 53.3°F11.8°C 80% 4.3 mph WNW6.9 kmh WNW 13.0 mph20.9 kmh 30.19 in1022.4 mb 0.00 in0.0 mm 0.00 in0.0 mm 0.01 in0.3 mm
07:16 AM 59.3°F15.2°C 52.8°F11.6°C 79% 6.2 mph WNW10.0 kmh WNW 13.0 mph20.9 kmh 30.19 in1022.4 mb 0.00 in0.0 mm 0.00 in0.0 mm 0.01 in0.3 mm
07:21 AM 59.3°F15.2°C 52.8°F11.6°C 79% 3.6 mph WNW5.8 kmh WNW 13.0 mph20.9 kmh 30.19 in1022.4 mb 0.00 in0.0 mm 0.00 in0.0 mm 0.01 in0.3 mm
07:26 AM 59.2°F15.1°C 52.7°F11.5°C 79% 2.6 mph WNW4.2 kmh WNW 13.0 mph20.9 kmh 30.19 in1022.4 mb 0.00 in0.0 mm 0.00 in0.0 mm 0.01 in0.3 mm
07:31 AM 59.2°F15.1°C 52.4°F11.3°C 78% 5.3 mph W8.5 kmh W 13.0 mph20.9 kmh 30.20 in1022.7 mb 0.00 in0.0 mm 0.00 in0.0 mm 0.01 in0.3 mm
07:36 AM 59.2°F15.1°C 52.4°F11.3°C 78% 5.4 mph W8.7 kmh W 12.0 mph19.3 kmh 30.20 in1022.7 mb 0.00 in0.0 mm 0.00 in0.0 mm 0.01 in0.3 mm
07:41 AM 59.1°F15.1°C 52.3°F11.3°C 78% 3.5 mph W5.6 kmh W 12.0 mph19.3 kmh 30.21 in1023.0 mb 0.00 in0.0 mm 0.00 in0.0 mm 0.01 in0.3 mm
07:46 AM 59.1°F15.1°C 52.3°F11.3°C 78% 4.0 mph WNW6.4 kmh WNW 12.0 mph19.3 kmh 30.21 in1023.0 mb 0.00 in0.0 mm 0.00 in0.0 mm 0.01 in0.3 mm
07:51 AM 59.0°F15.0°C 52.2°F11.2°C 78% 4.1 mph WNW6.6 kmh WNW 10.0 mph16.1 kmh 30.22 in1023.4 mb 0.00 in0.0 mm 0.00 in0.0 mm 0.01 in0.3 mm
07:56 AM 58.9°F14.9°C 51.8°F11.0°C 77% 6.2 mph WNW10.0 kmh WNW 15.0 mph24.1 kmh 30.22 in1023.4 mb 0.00 in0.0 mm 0.00 in0.0 mm 0.01 in0.3 mm
08:01 AM 58.9°F14.9°C 51.4°F10.8°C 76% 4.9 mph NW7.9 kmh NW 15.0 mph24.1 kmh 30.22 in1023.4 mb 0.00 in0.0 mm 0.00 in0.0 mm 0.01 in0.3 mm
08:06 AM 58.7°F14.8°C 50.9°F10.5°C 75% 6.1 mph NW9.8 kmh NW 15.0 mph24.1 kmh 30.22 in1023.4 mb 0.00 in0.0 mm 0.00 in0.0 mm 0.01 in0.3 mm
08:11 AM 58.6°F14.8°C 50.8°F10.4°C 75% 5.6 mph WNW9.0 kmh WNW 16.0 mph25.7 kmh 30.23 in1023.7 mb 0.00 in0.0 mm 0.00 in0.0 mm 0.01 in0.3 mm
08:16 AM 58.6°F14.8°C 50.8°F10.4°C 75% 8.5 mph NW13.7 kmh NW 16.0 mph25.7 kmh 30.23 in1023.7 mb 0.00 in0.0 mm 0.00 in0.0 mm 0.01 in0.3 mm
08:21 AM 58.5°F14.7°C 51.1°F10.6°C 76% 5.9 mph NW9.5 kmh NW 16.0 mph25.7 kmh 30.24 in1024.0 mb 0.00 in0.0 mm 0.00 in0.0 mm 0.01 in0.3 mm
08:26 AM 58.4°F14.7°C 51.0°F10.6°C 76% 5.9 mph NW9.5 kmh NW 16.0 mph25.7 kmh 30.24 in1024.0 mb 0.00 in0.0 mm 0.00 in0.0 mm 0.01 in0.3 mm
08:31 AM 58.3°F14.6°C 50.9°F10.5°C 76% 6.4 mph WNW10.3 kmh WNW 16.0 mph25.7 kmh 30.24 in1024.0 mb 0.00 in0.0 mm 0.00 in0.0 mm 0.01 in0.3 mm
08:36 AM 58.2°F14.6°C 51.1°F10.6°C 77% 4.8 mph WNW7.7 kmh WNW 16.0 mph25.7 kmh 30.24 in1024.0 mb 0.00 in0.0 mm 0.00 in0.0 mm 0.01 in0.3 mm
08:41 AM 58.2°F14.6°C 51.1°F10.6°C 77% 6.7 mph NW10.8 kmh NW 16.0 mph25.7 kmh 30.25 in1024.4 mb 0.00 in0.0 mm 0.00 in0.0 mm 0.01 in0.3 mm
08:46 AM 58.1°F14.5°C 51.0°F10.6°C 77% 4.5 mph NW7.2 kmh NW 14.0 mph22.5 kmh 30.25 in1024.4 mb 0.00 in0.0 mm 0.00 in0.0 mm 0.01 in0.3 mm
08:50 AM 58.1°F14.5°C 50.9°F10.5°C 77% 4.1 mph NW6.6 kmh NW 14.0 mph22.5 kmh 30.25 in1024.4 mb 0.00 in0.0 mm 0.00 in0.0 mm 0.01 in0.3 mm
08:55 AM 58.0°F14.4°C 50.2°F10.1°C 75% 5.1 mph NW8.2 kmh NW 16.0 mph25.7 kmh 30.25 in1024.4 mb 0.00 in0.0 mm 0.00 in0.0 mm 0.01 in0.3 mm
09:00 AM 57.9°F14.4°C 49.3°F9.6°C 73% 4.2 mph WNW6.8 kmh WNW 16.0 mph25.7 kmh 30.25 in1024.4 mb 0.00 in0.0 mm 0.00 in0.0 mm 0.01 in0.3 mm
09:05 AM 57.6°F14.2°C 48.3°F9.1°C 71% 4.9 mph NW7.9 kmh NW 16.0 mph25.7 kmh 30.25 in1024.4 mb 0.00 in0.0 mm 0.00 in0.0 mm 0.01 in0.3 mm
09:10 AM 57.1°F13.9°C 47.9°F8.8°C 71% 6.3 mph NW10.1 kmh NW 16.0 mph25.7 kmh 30.26 in1024.7 mb 0.00 in0.0 mm 0.00 in0.0 mm 0.01 in0.3 mm
09:15 AM 56.9°F13.8°C 47.7°F8.7°C 71% 6.4 mph NW10.3 kmh NW 16.0 mph25.7 kmh 30.26 in1024.7 mb 0.00 in0.0 mm 0.00 in0.0 mm 0.01 in0.3 mm
09:20 AM 56.6°F13.7°C 47.4°F8.6°C 71% 10.2 mph NW16.4 kmh NW 19.0 mph30.6 kmh 30.26 in1024.7 mb 0.00 in0.0 mm 0.00 in0.0 mm 0.01 in0.3 mm
09:25 AM 56.4°F13.6°C 47.6°F8.7°C 72% 8.0 mph NW12.9 kmh NW 19.0 mph30.6 kmh 30.26 in1024.7 mb 0.00 in0.0 mm 0.00 in0.0 mm 0.01 in0.3 mm
09:30 AM 56.5°F13.6°C 48.1°F8.9°C 73% 5.9 mph NW9.5 kmh NW 19.0 mph30.6 kmh 30.27 in1025.1 mb 0.00 in0.0 mm 0.00 in0.0 mm 0.01 in0.3 mm
09:35 AM 56.7°F13.7°C 48.2°F9.0°C 73% 5.4 mph NW8.7 kmh NW 19.0 mph30.6 kmh 30.27 in1025.1 mb 0.00 in0.0 mm 0.00 in0.0 mm 0.01 in0.3 mm
09:40 AM 56.8°F13.8°C 48.0°F8.9°C 72% 8.6 mph NW13.8 kmh NW 19.0 mph30.6 kmh 30.28 in1025.4 mb 0.00 in0.0 mm 0.00 in0.0 mm 0.01 in0.3 mm
09:45 AM 56.6°F13.7°C 47.1°F8.4°C 70% 7.8 mph NW12.6 kmh NW 19.0 mph30.6 kmh 30.28 in1025.4 mb 0.00 in0.0 mm 0.00 in0.0 mm 0.01 in0.3 mm
09:50 AM 56.6°F13.7°C 47.1°F8.4°C 70% 5.9 mph NW9.5 kmh NW 19.0 mph30.6 kmh 30.28 in1025.4 mb 0.00 in0.0 mm 0.00 in0.0 mm 0.01 in0.3 mm
09:55 AM 56.3°F13.5°C 46.4°F8.0°C 69% 9.1 mph NNW14.6 kmh NNW 19.0 mph30.6 kmh 30.28 in1025.4 mb 0.00 in0.0 mm 0.00 in0.0 mm 0.01 in0.3 mm
10:00 AM 56.0°F13.3°C 45.3°F7.4°C 67% 8.3 mph NW13.4 kmh NW 18.0 mph29.0 kmh 30.28 in1025.4 mb 0.00 in0.0 mm 0.00 in0.0 mm 0.01 in0.3 mm
10:05 AM 55.9°F13.3°C 45.6°F7.6°C 68% 8.3 mph NW13.4 kmh NW 16.0 mph25.7 kmh 30.29 in1025.7 mb 0.00 in0.0 mm 0.00 in0.0 mm 0.01 in0.3 mm
10:10 AM 56.0°F13.3°C 45.7°F7.6°C 68% 3.1 mph NW5.0 kmh NW 16.0 mph25.7 kmh 30.29 in1025.7 mb 0.00 in0.0 mm 0.00 in0.0 mm 0.01 in0.3 mm
10:15 AM 56.2°F13.4°C 45.9°F7.7°C 68% 4.3 mph NW6.9 kmh NW 16.0 mph25.7 kmh 30.29 in1025.7 mb 0.00 in0.0 mm 0.00 in0.0 mm 0.01 in0.3 mm
10:20 AM 56.4°F13.6°C 45.3°F7.4°C 66% 3.0 mph NW4.8 kmh NW 16.0 mph25.7 kmh 30.29 in1025.7 mb 0.00 in0.0 mm 0.00 in0.0 mm 0.01 in0.3 mm
10:25 AM 56.5°F13.6°C 45.4°F7.4°C 66% 1.6 mph NW2.6 kmh NW 12.0 mph19.3 kmh 30.30 in1026.1 mb 0.00 in0.0 mm 0.00 in0.0 mm 0.01 in0.3 mm
10:30 AM 56.5°F13.6°C 45.8°F7.7°C 67% 3.8 mph NW6.1 kmh NW 13.0 mph20.9 kmh 30.30 in1026.1 mb 0.00 in0.0 mm 0.00 in0.0 mm 0.01 in0.3 mm
10:35 AM 56.8°F13.8°C 45.7°F7.6°C 66% 4.7 mph NW7.6 kmh NW 13.0 mph20.9 kmh 30.30 in1026.1 mb 0.00 in0.0 mm 0.00 in0.0 mm 0.01 in0.3 mm
10:40 AM 56.8°F13.8°C 44.9°F7.2°C 64% 7.1 mph NNW11.4 kmh NNW 13.0 mph20.9 kmh 30.30 in1026.1 mb 0.00 in0.0 mm 0.00 in0.0 mm 0.01 in0.3 mm
10:45 AM 56.9°F13.8°C 42.8°F6.0°C 59% 8.4 mph NW13.5 kmh NW 16.0 mph25.7 kmh 30.30 in1026.1 mb 0.00 in0.0 mm 0.00 in0.0 mm 0.01 in0.3 mm
10:50 AM 57.4°F14.1°C 43.2°F6.2°C 59% 5.2 mph NW8.4 kmh NW 16.0 mph25.7 kmh 30.30 in1026.1 mb 0.00 in0.0 mm 0.00 in0.0 mm 0.01 in0.3 mm
10:55 AM 57.5°F14.2°C 42.5°F5.8°C 57% 9.7 mph NW15.6 kmh NW 16.0 mph25.7 kmh 30.31 in1026.4 mb 0.00 in0.0 mm 0.00 in0.0 mm 0.01 in0.3 mm
11:00 AM 57.3°F14.1°C 41.8°F5.4°C 56% 5.9 mph NW9.5 kmh NW 17.0 mph27.4 kmh 30.31 in1026.4 mb 0.00 in0.0 mm 0.00 in0.0 mm 0.01 in0.3 mm
11:05 AM 56.9°F13.8°C 41.4°F5.2°C 56% 8.8 mph NW14.2 kmh NW 20.0 mph32.2 kmh 30.31 in1026.4 mb 0.00 in0.0 mm 0.00 in0.0 mm 0.01 in0.3 mm
11:10 AM 56.8°F13.8°C 42.2°F5.7°C 58% 6.5 mph NW10.5 kmh NW 20.0 mph32.2 kmh 30.31 in1026.4 mb 0.00 in0.0 mm 0.00 in0.0 mm 0.01 in0.3 mm
11:15 AM 56.9°F13.8°C 41.9°F5.5°C 57% 8.8 mph NW14.2 kmh NW 20.0 mph32.2 kmh 30.31 in1026.4 mb 0.00 in0.0 mm 0.00 in0.0 mm 0.01 in0.3 mm
11:20 AM 56.8°F13.8°C 42.3°F5.7°C 58% 7.5 mph NW12.1 kmh NW 18.0 mph29.0 kmh 30.31 in1026.4 mb 0.00 in0.0 mm 0.00 in0.0 mm 0.01 in0.3 mm
11:25 AM 56.9°F13.8°C 42.4°F5.8°C 58% 6.1 mph NW9.8 kmh NW 18.0 mph29.0 kmh 30.32 in1026.8 mb 0.00 in0.0 mm 0.00 in0.0 mm 0.01 in0.3 mm
11:30 AM 57.5°F14.2°C 41.9°F5.5°C 56% 5.2 mph NW8.4 kmh NW 17.0 mph27.4 kmh 30.31 in1026.4 mb 0.00 in0.0 mm 0.00 in0.0 mm 0.01 in0.3 mm
11:35 AM 57.7°F14.3°C 40.7°F4.8°C 53% 8.9 mph NW14.3 kmh NW 18.0 mph29.0 kmh 30.32 in1026.8 mb 0.00 in0.0 mm 0.00 in0.0 mm 0.01 in0.3 mm
11:40 AM 57.3°F14.1°C 39.3°F4.1°C 51% 11.0 mph NW17.7 kmh NW 21.0 mph33.8 kmh 30.32 in1026.8 mb 0.00 in0.0 mm 0.00 in0.0 mm 0.01 in0.3 mm
11:45 AM 57.0°F13.9°C 39.0°F3.9°C 51% 6.2 mph NW10.0 kmh NW 21.0 mph33.8 kmh 30.32 in1026.8 mb 0.00 in0.0 mm 0.00 in0.0 mm 0.01 in0.3 mm
11:50 AM 57.5°F14.2°C 40.0°F4.4°C 52% 4.0 mph NNW6.4 kmh NNW 21.0 mph33.8 kmh 30.32 in1026.8 mb 0.00 in0.0 mm 0.00 in0.0 mm 0.01 in0.3 mm
11:55 AM 57.5°F14.2°C 39.0°F3.9°C 50% 10.3 mph NW16.6 kmh NW 21.0 mph33.8 kmh 30.32 in1026.8 mb 0.00 in0.0 mm 0.00 in0.0 mm 0.01 in0.3 mm
12:00 PM 57.3°F14.1°C 39.3°F4.1°C 51% 7.7 mph NW12.4 kmh NW 21.0 mph33.8 kmh 30.32 in1026.8 mb 0.00 in0.0 mm 0.00 in0.0 mm 0.01 in0.3 mm
12:05 PM 57.1°F13.9°C 38.6°F3.7°C 50% 7.3 mph NW11.7 kmh NW 21.0 mph33.8 kmh 30.32 in1026.8 mb 0.00 in0.0 mm 0.00 in0.0 mm 0.01 in0.3 mm
12:10 PM 57.1°F13.9°C 39.1°F3.9°C 51% 8.2 mph NW13.2 kmh NW 21.0 mph33.8 kmh 30.32 in1026.8 mb 0.00 in0.0 mm 0.00 in0.0 mm 0.01 in0.3 mm
12:15 PM 57.1°F13.9°C 39.6°F4.2°C 52% 7.7 mph NW12.4 kmh NW 21.0 mph33.8 kmh 30.32 in1026.8 mb 0.00 in0.0 mm 0.00 in0.0 mm 0.01 in0.3 mm
12:20 PM 57.4°F14.1°C 39.4°F4.1°C 51% 6.6 mph NW10.6 kmh NW 17.0 mph27.4 kmh 30.32 in1026.8 mb 0.00 in0.0 mm 0.00 in0.0 mm 0.01 in0.3 mm
12:25 PM 57.2°F14.0°C 39.2°F4.0°C 51% 7.0 mph NW11.3 kmh NW 16.0 mph25.7 kmh 30.32 in1026.8 mb 0.00 in0.0 mm 0.00 in0.0 mm 0.01 in0.3 mm
12:30 PM 57.4°F14.1°C 38.9°F3.8°C 50% 5.6 mph NW9.0 kmh NW 16.0 mph25.7 kmh 30.32 in1026.8 mb 0.00 in0.0 mm 0.00 in0.0 mm 0.01 in0.3 mm
12:35 PM 57.9°F14.4°C 38.3°F3.5°C 48% 4.3 mph WNW6.9 kmh WNW 15.0 mph24.1 kmh 30.32 in1026.8 mb 0.00 in0.0 mm 0.00 in0.0 mm 0.01 in0.3 mm
12:40 PM 58.0°F14.4°C 36.2°F2.3°C 44% 6.0 mph NW9.7 kmh NW 15.0 mph24.1 kmh 30.32 in1026.8 mb 0.00 in0.0 mm 0.00 in0.0 mm 0.01 in0.3 mm
12:45 PM 57.9°F14.4°C 35.5°F1.9°C 43% 6.9 mph NW11.1 kmh NW 14.0 mph22.5 kmh 30.32 in1026.8 mb 0.00 in0.0 mm 0.00 in0.0 mm 0.01 in0.3 mm
12:50 PM 58.0°F14.4°C 36.8°F2.7°C 45% 3.5 mph NW5.6 kmh NW 14.0 mph22.5 kmh 30.32 in1026.8 mb 0.00 in0.0 mm 0.00 in0.0 mm 0.01 in0.3 mm
12:55 PM 57.9°F14.4°C 33.6°F0.9°C 40% 10.9 mph NW17.5 kmh NW 20.0 mph32.2 kmh 30.32 in1026.8 mb 0.00 in0.0 mm 0.00 in0.0 mm 0.01 in0.3 mm
01:00 PM 57.7°F14.3°C 34.6°F1.4°C 42% 7.3 mph NW11.7 kmh NW 20.0 mph32.2 kmh 30.32 in1026.8 mb 0.00 in0.0 mm 0.00 in0.0 mm 0.01 in0.3 mm
01:05 PM 58.0°F14.4°C 36.7°F2.6°C 45% 4.1 mph NNW6.6 kmh NNW 20.0 mph32.2 kmh 30.32 in1026.8 mb 0.00 in0.0 mm 0.00 in0.0 mm 0.01 in0.3 mm
01:10 PM 58.3°F14.6°C 36.4°F2.4°C 44% 7.1 mph NW11.4 kmh NW 20.0 mph32.2 kmh 30.32 in1026.8 mb 0.00 in0.0 mm 0.00 in0.0 mm 0.01 in0.3 mm
01:15 PM 58.5°F14.7°C 36.6°F2.6°C 44% 7.0 mph NW11.3 kmh NW 16.0 mph25.7 kmh 30.31 in1026.4 mb 0.00 in0.0 mm 0.00 in0.0 mm 0.01 in0.3 mm
01:20 PM 58.0°F14.4°C 35.5°F1.9°C 43% 9.0 mph NW14.5 kmh NW 17.0 mph27.4 kmh 30.32 in1026.8 mb 0.00 in0.0 mm 0.00 in0.0 mm 0.01 in0.3 mm
01:25 PM 58.2°F14.6°C 35.1°F1.7°C 42% 7.1 mph NW11.4 kmh NW 20.0 mph32.2 kmh 30.32 in1026.8 mb 0.00 in0.0 mm 0.00 in0.0 mm 0.01 in0.3 mm
01:30 PM 58.3°F14.6°C 33.4°F0.8°C 39% 8.1 mph NW13.0 kmh NW 20.0 mph32.2 kmh 30.32 in1026.8 mb 0.00 in0.0 mm 0.00 in0.0 mm 0.01 in0.3 mm
01:35 PM 58.0°F14.4°C 31.8°F-0.1°C 37% 8.2 mph NNW13.2 kmh NNW 20.0 mph32.2 kmh 30.32 in1026.8 mb 0.00 in0.0 mm 0.00 in0.0 mm 0.01 in0.3 mm
01:40 PM 58.1°F14.5°C 29.8°F-1.2°C 34% 5.8 mph NW9.3 kmh NW 20.0 mph32.2 kmh 30.31 in1026.4 mb 0.00 in0.0 mm 0.00 in0.0 mm 0.01 in0.3 mm
01:45 PM 58.2°F14.6°C 24.3°F-4.3°C 27% 11.3 mph NW18.2 kmh NW 19.0 mph30.6 kmh 30.31 in1026.4 mb 0.00 in0.0 mm 0.00 in0.0 mm 0.01 in0.3 mm
01:49 PM 58.0°F14.4°C 24.2°F-4.3°C 27% 9.9 mph N15.9 kmh N 19.0 mph30.6 kmh 30.32 in1026.8 mb 0.00 in0.0 mm 0.00 in0.0 mm 0.01 in0.3 mm
01:54 PM 58.0°F14.4°C 25.9°F-3.4°C 29% 4.9 mph N7.9 kmh N 19.0 mph30.6 kmh 30.31 in1026.4 mb 0.00 in0.0 mm 0.00 in0.0 mm 0.01 in0.3 mm
01:59 PM 58.0°F14.4°C 26.7°F-2.9°C 30% 8.8 mph N14.2 kmh N 19.0 mph30.6 kmh 30.31 in1026.4 mb 0.00 in0.0 mm 0.00 in0.0 mm 0.01 in0.3 mm
02:04 PM 58.2°F14.6°C 27.7°F-2.4°C 31% 4.5 mph N7.2 kmh N 18.0 mph29.0 kmh 30.31 in1026.4 mb 0.00 in0.0 mm 0.00 in0.0 mm 0.01 in0.3 mm
02:09 PM 58.5°F14.7°C 28.7°F-1.8°C 32% 5.2 mph N8.4 kmh N 18.0 mph29.0 kmh 30.31 in1026.4 mb 0.00 in0.0 mm 0.00 in0.0 mm 0.01 in0.3 mm
02:14 PM 58.6°F14.8°C 28.8°F-1.8°C 32% 7.5 mph N12.1 kmh N 18.0 mph29.0 kmh 30.31 in1026.4 mb 0.00 in0.0 mm 0.00 in0.0 mm 0.01 in0.3 mm
02:19 PM 58.6°F14.8°C 29.6°F-1.3°C 33% 7.5 mph N12.1 kmh N 18.0 mph29.0 kmh 30.31 in1026.4 mb 0.00 in0.0 mm 0.00 in0.0 mm 0.01 in0.3 mm
02:24 PM 58.5°F14.7°C 30.9°F-0.6°C 35% 6.3 mph N10.1 kmh N 18.0 mph29.0 kmh 30.30 in1026.1 mb 0.00 in0.0 mm 0.00 in0.0 mm 0.01 in0.3 mm
02:29 PM 58.8°F14.9°C 31.2°F-0.4°C 35% 4.6 mph NW7.4 kmh NW 18.0 mph29.0 kmh 30.31 in1026.4 mb 0.00 in0.0 mm 0.00 in0.0 mm 0.01 in0.3 mm
02:34 PM 58.7°F14.8°C 31.1°F-0.5°C 35% 6.0 mph NNW9.7 kmh NNW 18.0 mph29.0 kmh 30.31 in1026.4 mb 0.00 in0.0 mm 0.00 in0.0 mm 0.01 in0.3 mm
02:39 PM 58.7°F14.8°C 29.4°F-1.4°C 33% 3.9 mph NNW6.3 kmh NNW 14.0 mph22.5 kmh 30.31 in1026.4 mb 0.00 in0.0 mm 0.00 in0.0 mm 0.01 in0.3 mm
02:44 PM 58.6°F14.8°C 30.3°F-0.9°C 34% 7.4 mph NW11.9 kmh NW 14.0 mph22.5 kmh 30.31 in1026.4 mb 0.00 in0.0 mm 0.00 in0.0 mm 0.01 in0.3 mm
02:49 PM 58.6°F14.8°C 30.3°F-0.9°C 34% 5.7 mph NNW9.2 kmh NNW 15.0 mph24.1 kmh 30.31 in1026.4 mb 0.00 in0.0 mm 0.00 in0.0 mm 0.01 in0.3 mm
02:54 PM 58.8°F14.9°C 29.7°F-1.3°C 33% 4.1 mph NNW6.6 kmh NNW 15.0 mph24.1 kmh 30.31 in1026.4 mb 0.00 in0.0 mm 0.00 in0.0 mm 0.01 in0.3 mm
02:59 PM 58.7°F14.8°C 29.6°F-1.3°C 33% 6.8 mph NW10.9 kmh NW 15.0 mph24.1 kmh 30.31 in1026.4 mb 0.00 in0.0 mm 0.00 in0.0 mm 0.01 in0.3 mm
03:04 PM 58.6°F14.8°C 28.8°F-1.8°C 32% 6.5 mph WNW10.5 kmh WNW 15.0 mph24.1 kmh 30.31 in1026.4 mb 0.00 in0.0 mm 0.00 in0.0 mm 0.01 in0.3 mm
03:09 PM 59.0°F15.0°C 29.9°F-1.2°C 33% 3.1 mph NNW5.0 kmh NNW 13.0 mph20.9 kmh 30.31 in1026.4 mb 0.00 in0.0 mm 0.00 in0.0 mm 0.01 in0.3 mm
03:14 PM 59.0°F15.0°C 27.4°F-2.6°C 30% 7.3 mph NW11.7 kmh NW 13.0 mph20.9 kmh 30.31 in1026.4 mb 0.00 in0.0 mm 0.00 in0.0 mm 0.01 in0.3 mm
03:19 PM 58.7°F14.8°C 27.9°F-2.3°C 31% 8.1 mph NW13.0 kmh NW 15.0 mph24.1 kmh 30.31 in1026.4 mb 0.00 in0.0 mm 0.00 in0.0 mm 0.01 in0.3 mm
03:24 PM 58.8°F14.9°C 23.8°F-4.6°C 26% 7.9 mph NNW12.7 kmh NNW 18.0 mph29.0 kmh 30.31 in1026.4 mb 0.00 in0.0 mm 0.00 in0.0 mm 0.01 in0.3 mm
03:29 PM 58.9°F14.9°C 23.9°F-4.5°C 26% 7.1 mph NNW11.4 kmh NNW 18.0 mph29.0 kmh 30.31 in1026.4 mb 0.00 in0.0 mm 0.00 in0.0 mm 0.01 in0.3 mm
03:34 PM 58.7°F14.8°C 24.6°F-4.1°C 27% 7.5 mph NNW12.1 kmh NNW 18.0 mph29.0 kmh 30.31 in1026.4 mb 0.00 in0.0 mm 0.00 in0.0 mm 0.01 in0.3 mm
03:39 PM 58.6°F14.8°C 24.5°F-4.2°C 27% 7.3 mph N11.7 kmh N 16.0 mph25.7 kmh 30.31 in1026.4 mb 0.00 in0.0 mm 0.00 in0.0 mm 0.01 in0.3 mm
03:44 PM 58.6°F14.8°C 24.5°F-4.2°C 27% 6.7 mph N10.8 kmh N 15.0 mph24.1 kmh 30.31 in1026.4 mb 0.00 in0.0 mm 0.00 in0.0 mm 0.01 in0.3 mm
03:49 PM 58.7°F14.8°C 24.6°F-4.1°C 27% 5.1 mph NNW8.2 kmh NNW 16.0 mph25.7 kmh 30.31 in1026.4 mb 0.00 in0.0 mm 0.00 in0.0 mm 0.01 in0.3 mm
03:54 PM 58.6°F14.8°C 25.4°F-3.7°C 28% 5.8 mph NNW9.3 kmh NNW 16.0 mph25.7 kmh 30.31 in1026.4 mb 0.00 in0.0 mm 0.00 in0.0 mm 0.01 in0.3 mm
03:59 PM 58.6°F14.8°C 25.4°F-3.7°C 28% 5.9 mph NNW9.5 kmh NNW 16.0 mph25.7 kmh 30.31 in1026.4 mb 0.00 in0.0 mm 0.00 in0.0 mm 0.01 in0.3 mm
04:04 PM 58.4°F14.7°C 26.9°F-2.8°C 30% 7.2 mph NNW11.6 kmh NNW 16.0 mph25.7 kmh 30.31 in1026.4 mb 0.00 in0.0 mm 0.00 in0.0 mm 0.01 in0.3 mm
04:09 PM 58.4°F14.7°C 25.2°F-3.8°C 28% 8.5 mph NW13.7 kmh NW 15.0 mph24.1 kmh 30.31 in1026.4 mb 0.00 in0.0 mm 0.00 in0.0 mm 0.01 in0.3 mm
04:14 PM 58.3°F14.6°C 26.0°F-3.3°C 29% 7.6 mph NW12.2 kmh NW 15.0 mph24.1 kmh 30.32 in1026.8 mb 0.00 in0.0 mm 0.00 in0.0 mm 0.01 in0.3 mm
04:19 PM 58.4°F14.7°C 26.9°F-2.8°C 30% 5.4 mph NNW8.7 kmh NNW 15.0 mph24.1 kmh 30.32 in1026.8 mb 0.00 in0.0 mm 0.00 in0.0 mm 0.01 in0.3 mm
04:24 PM 58.1°F14.5°C 26.6°F-3.0°C 30% 4.2 mph NW6.8 kmh NW 15.0 mph24.1 kmh 30.32 in1026.8 mb 0.00 in0.0 mm 0.00 in0.0 mm 0.01 in0.3 mm
04:29 PM 57.8°F14.3°C 27.1°F-2.7°C 31% 5.7 mph NNW9.2 kmh NNW 15.0 mph24.1 kmh 30.32 in1026.8 mb 0.00 in0.0 mm 0.00 in0.0 mm 0.01 in0.3 mm
04:34 PM 57.5°F14.2°C 26.9°F-2.8°C 31% 7.2 mph NW11.6 kmh NW 17.0 mph27.4 kmh 30.32 in1026.8 mb 0.00 in0.0 mm 0.00 in0.0 mm 0.01 in0.3 mm
04:39 PM 57.1°F13.9°C 27.3°F-2.6°C 32% 8.9 mph NW14.3 kmh NW 18.0 mph29.0 kmh 30.32 in1026.8 mb 0.00 in0.0 mm 0.00 in0.0 mm 0.01 in0.3 mm
04:44 PM 56.8°F13.8°C 27.0°F-2.8°C 32% 8.4 mph NW13.5 kmh NW 18.0 mph29.0 kmh 30.33 in1027.1 mb 0.00 in0.0 mm 0.00 in0.0 mm 0.01 in0.3 mm
04:49 PM 56.5°F13.6°C 26.8°F-2.9°C 32% 5.8 mph NW9.3 kmh NW 18.0 mph29.0 kmh 30.33 in1027.1 mb 0.00 in0.0 mm 0.00 in0.0 mm 0.01 in0.3 mm
04:54 PM 56.6°F13.7°C 26.8°F-2.9°C 32% 5.5 mph NNW8.9 kmh NNW 18.0 mph29.0 kmh 30.33 in1027.1 mb 0.00 in0.0 mm 0.00 in0.0 mm 0.01 in0.3 mm
04:59 PM 56.4°F13.6°C 24.3°F-4.3°C 29% 7.0 mph N11.3 kmh N 17.0 mph27.4 kmh 30.33 in1027.1 mb 0.00 in0.0 mm 0.00 in0.0 mm 0.01 in0.3 mm
05:04 PM 55.9°F13.3°C 22.4°F-5.3°C 27% 6.0 mph NNW9.7 kmh NNW 14.0 mph22.5 kmh 30.33 in1027.1 mb 0.00 in0.0 mm 0.00 in0.0 mm 0.01 in0.3 mm
05:09 PM 55.5°F13.1°C 22.0°F-5.6°C 27% 6.8 mph NNW10.9 kmh NNW 15.0 mph24.1 kmh 30.33 in1027.1 mb 0.00 in0.0 mm 0.00 in0.0 mm 0.01 in0.3 mm
05:14 PM 55.1°F12.8°C 20.8°F-6.2°C 26% 8.8 mph NW14.2 kmh NW 15.0 mph24.1 kmh 30.33 in1027.1 mb 0.00 in0.0 mm 0.00 in0.0 mm 0.01 in0.3 mm
05:20 PM 54.9°F12.7°C 22.4°F-5.3°C 28% 5.5 mph NNW8.9 kmh NNW 15.0 mph24.1 kmh 30.34 in1027.4 mb 0.00 in0.0 mm 0.00 in0.0 mm 0.01 in0.3 mm
05:24 PM 54.7°F12.6°C 21.3°F-5.9°C 27% 6.7 mph NW10.8 kmh NW 15.0 mph24.1 kmh 30.34 in1027.4 mb 0.00 in0.0 mm 0.00 in0.0 mm 0.01 in0.3 mm
05:30 PM 54.5°F12.5°C 21.0°F-6.1°C 27% 8.5 mph NNW13.7 kmh NNW 16.0 mph25.7 kmh 30.34 in1027.4 mb 0.00 in0.0 mm 0.00 in0.0 mm 0.01 in0.3 mm
05:35 PM 54.3°F12.4°C 22.5°F-5.3°C 29% 6.8 mph NNW10.9 kmh NNW 16.0 mph25.7 kmh 30.34 in1027.4 mb 0.00 in0.0 mm 0.00 in0.0 mm 0.01 in0.3 mm
05:40 PM 54.1°F12.3°C 22.3°F-5.4°C 29% 2.5 mph NNW4.0 kmh NNW 16.0 mph25.7 kmh 30.34 in1027.4 mb 0.00 in0.0 mm 0.00 in0.0 mm 0.01 in0.3 mm
05:44 PM 53.8°F12.1°C 21.2°F-6.0°C 28% 6.3 mph NNW10.1 kmh NNW 16.0 mph25.7 kmh 30.34 in1027.4 mb 0.00 in0.0 mm 0.00 in0.0 mm 0.01 in0.3 mm
05:49 PM 53.5°F11.9°C 21.8°F-5.7°C 29% 6.6 mph NNW10.6 kmh NNW 17.0 mph27.4 kmh 30.34 in1027.4 mb 0.00 in0.0 mm 0.00 in0.0 mm 0.01 in0.3 mm
05:55 PM 53.2°F11.8°C 22.3°F-5.4°C 30% 6.2 mph NNW10.0 kmh NNW 17.0 mph27.4 kmh 30.34 in1027.4 mb 0.00 in0.0 mm 0.00 in0.0 mm 0.01 in0.3 mm
06:00 PM 52.9°F11.6°C 22.1°F-5.5°C 30% 5.6 mph NNW9.0 kmh NNW 17.0 mph27.4 kmh 30.34 in1027.4 mb 0.00 in0.0 mm 0.00 in0.0 mm 0.01 in0.3 mm
06:05 PM 52.6°F11.4°C 22.6°F-5.2°C 31% 3.7 mph NW6.0 kmh NW 17.0 mph27.4 kmh 30.35 in1027.8 mb 0.00 in0.0 mm 0.00 in0.0 mm 0.01 in0.3 mm
06:10 PM 52.3°F11.3°C 22.3°F-5.4°C 31% 7.7 mph NW12.4 kmh NW 15.0 mph24.1 kmh 30.35 in1027.8 mb 0.00 in0.0 mm 0.00 in0.0 mm 0.01 in0.3 mm
06:15 PM 52.1°F11.2°C 22.9°F-5.1°C 32% 5.1 mph NNW8.2 kmh NNW 15.0 mph24.1 kmh 30.35 in1027.8 mb 0.00 in0.0 mm 0.00 in0.0 mm 0.01 in0.3 mm
06:20 PM 51.9°F11.1°C 22.7°F-5.2°C 32% 4.4 mph NW7.1 kmh NW 14.0 mph22.5 kmh 30.36 in1028.1 mb 0.00 in0.0 mm 0.00 in0.0 mm 0.01 in0.3 mm
06:25 PM 51.7°F10.9°C 23.5°F-4.7°C 33% 4.1 mph NW6.6 kmh NW 14.0 mph22.5 kmh 30.36 in1028.1 mb 0.00 in0.0 mm 0.00 in0.0 mm 0.01 in0.3 mm
06:30 PM 51.5°F10.8°C 23.3°F-4.8°C 33% 3.8 mph NW6.1 kmh NW 12.0 mph19.3 kmh 30.36 in1028.1 mb 0.00 in0.0 mm 0.00 in0.0 mm 0.01 in0.3 mm
06:35 PM 51.3°F10.7°C 23.1°F-4.9°C 33% 3.9 mph NW6.3 kmh NW 12.0 mph19.3 kmh 30.36 in1028.1 mb 0.00 in0.0 mm 0.00 in0.0 mm 0.01 in0.3 mm
06:40 PM 51.2°F10.7°C 22.8°F-5.1°C 33% 5.3 mph NW8.5 kmh NW 12.0 mph19.3 kmh 30.36 in1028.1 mb 0.00 in0.0 mm 0.00 in0.0 mm 0.01 in0.3 mm
06:45 PM 51.1°F10.6°C 22.0°F-5.6°C 32% 4.8 mph NW7.7 kmh NW 12.0 mph19.3 kmh 30.37 in1028.4 mb 0.00 in0.0 mm 0.00 in0.0 mm 0.01 in0.3 mm
06:50 PM 50.9°F10.5°C 22.1°F-5.5°C 32% 6.1 mph NW9.8 kmh NW 11.0 mph17.7 kmh 30.37 in1028.4 mb 0.00 in0.0 mm 0.00 in0.0 mm 0.01 in0.3 mm
06:55 PM 50.8°F10.4°C 21.8°F-5.7°C 32% 4.0 mph NW6.4 kmh NW 11.0 mph17.7 kmh 30.38 in1028.8 mb 0.00 in0.0 mm 0.00 in0.0 mm 0.01 in0.3 mm
07:00 PM 50.5°F10.3°C 21.5°F-5.8°C 32% 5.3 mph NW8.5 kmh NW 13.0 mph20.9 kmh 30.37 in1028.4 mb 0.00 in0.0 mm 0.00 in0.0 mm 0.01 in0.3 mm
07:05 PM 50.3°F10.2°C 22.0°F-5.6°C 33% 3.9 mph NW6.3 kmh NW 13.0 mph20.9 kmh 30.37 in1028.4 mb 0.00 in0.0 mm 0.00 in0.0 mm 0.01 in0.3 mm
07:10 PM 50.1°F10.1°C 21.9°F-5.6°C 33% 4.9 mph NW7.9 kmh NW 13.0 mph20.9 kmh 30.38 in1028.8 mb 0.00 in0.0 mm 0.00 in0.0 mm 0.01 in0.3 mm
07:15 PM 50.0°F10.0°C 21.8°F-5.7°C 33% 5.6 mph NW9.0 kmh NW 12.0 mph19.3 kmh 30.38 in1028.8 mb 0.00 in0.0 mm 0.00 in0.0 mm 0.01 in0.3 mm
07:20 PM 49.8°F9.9°C 22.3°F-5.4°C 34% 3.6 mph NW5.8 kmh NW 12.0 mph19.3 kmh 30.38 in1028.8 mb 0.00 in0.0 mm 0.00 in0.0 mm 0.01 in0.3 mm
07:25 PM 49.7°F9.8°C 22.2°F-5.4°C 34% 5.4 mph NW8.7 kmh NW 12.0 mph19.3 kmh 30.38 in1028.8 mb 0.00 in0.0 mm 0.00 in0.0 mm 0.01 in0.3 mm
07:30 PM 49.5°F9.7°C 22.7°F-5.2°C 35% 4.7 mph NW7.6 kmh NW 12.0 mph19.3 kmh 30.38 in1028.8 mb 0.00 in0.0 mm 0.00 in0.0 mm 0.01 in0.3 mm
07:35 PM 49.3°F9.6°C 22.6°F-5.2°C 35% 4.4 mph NNW7.1 kmh NNW 13.0 mph20.9 kmh 30.38 in1028.8 mb 0.00 in0.0 mm 0.00 in0.0 mm 0.01 in0.3 mm
07:40 PM 49.1°F9.5°C 21.7°F-5.7°C 34% 4.8 mph NW7.7 kmh NW 13.0 mph20.9 kmh 30.38 in1028.8 mb 0.00 in0.0 mm 0.00 in0.0 mm 0.01 in0.3 mm
07:45 PM 48.8°F9.3°C 21.6°F-5.8°C 34% 2.7 mph NW4.3 kmh NW 13.0 mph20.9 kmh 30.38 in1028.8 mb 0.00 in0.0 mm 0.00 in0.0 mm 0.01 in0.3 mm
07:48 PM 48.5°F9.2°C 21.8°F-5.7°C 35% 5.1 mph NW8.2 kmh NW 13.0 mph20.9 kmh 30.38 in1028.8 mb 0.00 in0.0 mm 0.00 in0.0 mm 0.01 in0.3 mm
07:53 PM 48.5°F9.2°C 21.2°F-6.0°C 34% 5.2 mph NW8.4 kmh NW 12.0 mph19.3 kmh 30.38 in1028.8 mb 0.00 in0.0 mm 0.00 in0.0 mm 0.01 in0.3 mm
07:58 PM 48.3°F9.1°C 21.0°F-6.1°C 34% 5.6 mph NW9.0 kmh NW 16.0 mph25.7 kmh 30.38 in1028.8 mb 0.00 in0.0 mm 0.00 in0.0 mm 0.01 in0.3 mm
08:03 PM 48.1°F8.9°C 21.7°F-5.7°C 35% 6.4 mph NW10.3 kmh NW 16.0 mph25.7 kmh 30.39 in1029.1 mb 0.00 in0.0 mm 0.00 in0.0 mm 0.01 in0.3 mm
08:08 PM 48.0°F8.9°C 21.4°F-5.9°C 35% 6.1 mph NW9.8 kmh NW 16.0 mph25.7 kmh 30.39 in1029.1 mb 0.00 in0.0 mm 0.00 in0.0 mm 0.01 in0.3 mm
08:13 PM 47.8°F8.8°C 21.9°F-5.6°C 36% 4.9 mph NW7.9 kmh NW 13.0 mph20.9 kmh 30.39 in1029.1 mb 0.00 in0.0 mm 0.00 in0.0 mm 0.01 in0.3 mm
08:18 PM 47.7°F8.7°C 21.8°F-5.7°C 36% 6.6 mph NW10.6 kmh NW 14.0 mph22.5 kmh 30.39 in1029.1 mb 0.00 in0.0 mm 0.00 in0.0 mm 0.01 in0.3 mm
08:23 PM 47.5°F8.6°C 22.5°F-5.3°C 37% 4.5 mph NNW7.2 kmh NNW 14.0 mph22.5 kmh 30.39 in1029.1 mb 0.00 in0.0 mm 0.00 in0.0 mm 0.01 in0.3 mm
08:28 PM 47.3°F8.5°C 22.1°F-5.5°C 37% 4.6 mph NW7.4 kmh NW 14.0 mph22.5 kmh 30.40 in1029.5 mb 0.00 in0.0 mm 0.00 in0.0 mm 0.01 in0.3 mm
08:34 PM 47.2°F8.4°C 22.7°F-5.2°C 38% 3.9 mph NW6.3 kmh NW 14.0 mph22.5 kmh 30.40 in1029.5 mb 0.00 in0.0 mm 0.00 in0.0 mm 0.01 in0.3 mm
08:38 PM 47.0°F8.3°C 22.5°F-5.3°C 38% 5.9 mph NW9.5 kmh NW 13.0 mph20.9 kmh 30.40 in1029.5 mb 0.00 in0.0 mm 0.00 in0.0 mm 0.01 in0.3 mm
08:44 PM 46.8°F8.2°C 22.9°F-5.1°C 39% 4.3 mph NW6.9 kmh NW 13.0 mph20.9 kmh 30.40 in1029.5 mb 0.00 in0.0 mm 0.00 in0.0 mm 0.01 in0.3 mm
08:49 PM 46.7°F8.2°C 22.8°F-5.1°C 39% 5.9 mph NNW9.5 kmh NNW 14.0 mph22.5 kmh 30.40 in1029.5 mb 0.00 in0.0 mm 0.00 in0.0 mm 0.01 in0.3 mm
08:54 PM 46.5°F8.1°C 23.4°F-4.8°C 40% 3.8 mph NW6.1 kmh NW 14.0 mph22.5 kmh 30.40 in1029.5 mb 0.00 in0.0 mm 0.00 in0.0 mm 0.01 in0.3 mm
08:59 PM 46.3°F7.9°C 23.1°F-4.9°C 40% 2.9 mph NW4.7 kmh NW 14.0 mph22.5 kmh 30.40 in1029.5 mb 0.00 in0.0 mm 0.00 in0.0 mm 0.01 in0.3 mm
09:03 PM 46.2°F7.9°C 23.0°F-5.0°C 40% 4.9 mph NW7.9 kmh NW 14.0 mph22.5 kmh 30.40 in1029.5 mb 0.00 in0.0 mm 0.00 in0.0 mm 0.01 in0.3 mm
09:09 PM 46.0°F7.8°C 23.4°F-4.8°C 41% 5.4 mph NW8.7 kmh NW 15.0 mph24.1 kmh 30.40 in1029.5 mb 0.00 in0.0 mm 0.00 in0.0 mm 0.01 in0.3 mm
09:14 PM 45.9°F7.7°C 23.9°F-4.5°C 42% 2.8 mph NW4.5 kmh NW 15.0 mph24.1 kmh 30.41 in1029.8 mb 0.00 in0.0 mm 0.00 in0.0 mm 0.01 in0.3 mm
09:19 PM 45.7°F7.6°C 23.9°F-4.5°C 42% 4.3 mph NW6.9 kmh NW 15.0 mph24.1 kmh 30.41 in1029.8 mb 0.00 in0.0 mm 0.00 in0.0 mm 0.01 in0.3 mm
09:24 PM 45.6°F7.6°C 23.2°F-4.9°C 41% 5.3 mph NW8.5 kmh NW 15.0 mph24.1 kmh 30.41 in1029.8 mb 0.00 in0.0 mm 0.00 in0.0 mm 0.01 in0.3 mm
09:29 PM 45.4°F7.4°C 23.6°F-4.7°C 42% 4.0 mph NNW6.4 kmh NNW 12.0 mph19.3 kmh 30.41 in1029.8 mb 0.00 in0.0 mm 0.00 in0.0 mm 0.01 in0.3 mm
09:34 PM 45.2°F7.3°C 23.3°F-4.8°C 42% 4.5 mph NW7.2 kmh NW 12.0 mph19.3 kmh 30.41 in1029.8 mb 0.00 in0.0 mm 0.00 in0.0 mm 0.01 in0.3 mm
09:39 PM 45.1°F7.3°C 23.8°F-4.6°C 43% 4.8 mph NW7.7 kmh NW 12.0 mph19.3 kmh 30.42 in1030.1 mb 0.00 in0.0 mm 0.00 in0.0 mm 0.01 in0.3 mm
09:44 PM 45.0°F7.2°C 23.7°F-4.6°C 43% 4.0 mph NW6.4 kmh NW 12.0 mph19.3 kmh 30.42 in1030.1 mb 0.00 in0.0 mm 0.00 in0.0 mm 0.01 in0.3 mm
09:49 PM 44.9°F7.2°C 23.6°F-4.7°C 43% 6.0 mph NW9.7 kmh NW 12.0 mph19.3 kmh 30.42 in1030.1 mb 0.00 in0.0 mm 0.00 in0.0 mm 0.01 in0.3 mm
09:54 PM 44.9°F7.2°C 24.2°F-4.3°C 44% 4.6 mph NW7.4 kmh NW 13.0 mph20.9 kmh 30.42 in1030.1 mb 0.00 in0.0 mm 0.00 in0.0 mm 0.01 in0.3 mm
09:59 PM 44.7°F7.1°C 24.5°F-4.2°C 45% 5.0 mph NW8.0 kmh NW 13.0 mph20.9 kmh 30.42 in1030.1 mb 0.00 in0.0 mm 0.00 in0.0 mm 0.01 in0.3 mm
10:04 PM 44.7°F7.1°C 24.0°F-4.4°C 44% 5.7 mph NW9.2 kmh NW 13.0 mph20.9 kmh 30.42 in1030.1 mb 0.00 in0.0 mm 0.00 in0.0 mm 0.01 in0.3 mm
10:09 PM 44.6°F7.0°C 24.4°F-4.2°C 45% 7.0 mph NW11.3 kmh NW 13.0 mph20.9 kmh 30.42 in1030.1 mb 0.00 in0.0 mm 0.00 in0.0 mm 0.01 in0.3 mm
10:14 PM 44.4°F6.9°C 24.3°F-4.3°C 45% 4.7 mph NNW7.6 kmh NNW 12.0 mph19.3 kmh 30.42 in1030.1 mb 0.00 in0.0 mm 0.00 in0.0 mm 0.01 in0.3 mm
10:19 PM 44.3°F6.8°C 24.2°F-4.3°C 45% 4.9 mph NW7.9 kmh NW 13.0 mph20.9 kmh 30.43 in1030.5 mb 0.00 in0.0 mm 0.00 in0.0 mm 0.01 in0.3 mm
10:24 PM 44.3°F6.8°C 24.3°F-4.3°C 45% 4.1 mph NW6.6 kmh NW 14.0 mph22.5 kmh 30.42 in1030.1 mb 0.00 in0.0 mm 0.00 in0.0 mm 0.01 in0.3 mm
10:29 PM 44.1°F6.7°C 24.5°F-4.2°C 46% 5.5 mph NNW8.9 kmh NNW 14.0 mph22.5 kmh 30.42 in1030.1 mb 0.00 in0.0 mm 0.00 in0.0 mm 0.01 in0.3 mm
10:34 PM 44.1°F6.7°C 24.5°F-4.2°C 46% 2.9 mph NW4.7 kmh NW 14.0 mph22.5 kmh 30.42 in1030.1 mb 0.00 in0.0 mm 0.00 in0.0 mm 0.01 in0.3 mm
10:39 PM 44.0°F6.7°C 25.0°F-3.9°C 47% 4.4 mph NNW7.1 kmh NNW 11.0 mph17.7 kmh 30.43 in1030.5 mb 0.00 in0.0 mm 0.00 in0.0 mm 0.01 in0.3 mm
10:44 PM 43.9°F6.6°C 24.9°F-3.9°C 47% 3.2 mph NW5.1 kmh NW 11.0 mph17.7 kmh 30.43 in1030.5 mb 0.00 in0.0 mm 0.00 in0.0 mm 0.01 in0.3 mm
10:49 PM 43.9°F6.6°C 24.9°F-3.9°C 47% 3.6 mph NNW5.8 kmh NNW 11.0 mph17.7 kmh 30.43 in1030.5 mb 0.00 in0.0 mm 0.00 in0.0 mm 0.01 in0.3 mm
10:54 PM 43.9°F6.6°C 24.3°F-4.3°C 46% 6.6 mph NW10.6 kmh NW 14.0 mph22.5 kmh 30.43 in1030.5 mb 0.00 in0.0 mm 0.00 in0.0 mm 0.01 in0.3 mm
10:59 PM 43.8°F6.6°C 24.8°F-4.0°C 47% 4.7 mph NW7.6 kmh NW 14.0 mph22.5 kmh 30.43 in1030.5 mb 0.00 in0.0 mm 0.00 in0.0 mm 0.01 in0.3 mm
11:04 PM 43.8°F6.6°C 24.3°F-4.3°C 46% 5.1 mph NW8.2 kmh NW 14.0 mph22.5 kmh 30.43 in1030.5 mb 0.00 in0.0 mm 0.00 in0.0 mm 0.01 in0.3 mm
11:09 PM 43.8°F6.6°C 24.2°F-4.3°C 46% 5.6 mph NNW9.0 kmh NNW 14.0 mph22.5 kmh 30.43 in1030.5 mb 0.00 in0.0 mm 0.00 in0.0 mm 0.01 in0.3 mm
11:14 PM 43.8°F6.6°C 24.2°F-4.3°C 46% 3.8 mph NW6.1 kmh NW 13.0 mph20.9 kmh 30.43 in1030.5 mb 0.00 in0.0 mm 0.00 in0.0 mm 0.01 in0.3 mm
11:19 PM 43.7°F6.5°C 24.2°F-4.3°C 46% 4.4 mph NW7.1 kmh NW 12.0 mph19.3 kmh 30.43 in1030.5 mb 0.00 in0.0 mm 0.00 in0.0 mm 0.01 in0.3 mm
11:24 PM 43.6°F6.4°C 24.1°F-4.4°C 46% 4.3 mph NW6.9 kmh NW 12.0 mph19.3 kmh 30.44 in1030.8 mb 0.00 in0.0 mm 0.00 in0.0 mm 0.01 in0.3 mm
11:29 PM 43.5°F6.4°C 24.0°F-4.4°C 46% 3.8 mph NW6.1 kmh NW 12.0 mph19.3 kmh 30.43 in1030.5 mb 0.00 in0.0 mm 0.00 in0.0 mm 0.01 in0.3 mm
11:34 PM 43.5°F6.4°C 24.1°F-4.4°C 46% 3.3 mph NNW5.3 kmh NNW 12.0 mph19.3 kmh 30.43 in1030.5 mb 0.00 in0.0 mm 0.00 in0.0 mm 0.01 in0.3 mm
11:39 PM 43.4°F6.3°C 24.0°F-4.4°C 46% 3.3 mph NW5.3 kmh NW 12.0 mph19.3 kmh 30.44 in1030.8 mb 0.00 in0.0 mm 0.00 in0.0 mm 0.01 in0.3 mm
11:44 PM 43.5°F6.4°C 24.0°F-4.4°C 46% 4.9 mph NW7.9 kmh NW 9.0 mph14.5 kmh 30.44 in1030.8 mb 0.00 in0.0 mm 0.00 in0.0 mm 0.01 in0.3 mm
11:49 PM 43.4°F6.3°C 24.4°F-4.2°C 47% 3.6 mph NW5.8 kmh NW 9.0 mph14.5 kmh 30.44 in1030.8 mb 0.00 in0.0 mm 0.00 in0.0 mm 0.01 in0.3 mm
11:54 PM 43.4°F6.3°C 23.9°F-4.5°C 46% 3.5 mph NW5.6 kmh NW 10.0 mph16.1 kmh 30.44 in1030.8 mb 0.00 in0.0 mm 0.00 in0.0 mm 0.01 in0.3 mm
11:59 PM 43.3°F6.3°C 23.9°F-4.5°C 46% 4.9 mph NNW7.9 kmh NNW 10.0 mph16.1 kmh 30.44 in1030.8 mb 0.00 in0.0 mm 0.00 in0.0 mm 0.01 in0.3 mm